메인 페이지
METAR-TAF:

METAR-TAF

공항 :

러크나우, 인도

위도: 26-45N, 경도: 080-53E, 고도: 122m

현재 날씨관측

예보는 33분 전, 02:30시(UTC)에 발표되었습니다.
무풍
온도 8°C
습도 81%
기압 1014 hPa
시정: 0030m
안개

METAR: VILK 160230Z 00000KT 0030 R27/0125 FG VV/// 08/05 Q1014 NOSIG

시각: 08:33 (03:03 UTC)

예보

예보는 1 시간 3분 전, 02:00시(UTC)에 발표되었습니다.
예보 대상 시간: 16일 03시부터 16일 12시까지 (UTC)
kt
시정: 0100m
안개
전환 중
16일 04시부터 16일 06시까지 (UTC)
시정: 0700m
안개
전환 중
16일 08시부터 16일 10시까지 (UTC)
서북서4kt
시정: 1500m
박무, 연무

TAF: VILK 160200Z 1603/1612 00000KT 0100 FG VV/// BECMG 1604/1606 0700 FG BECMG 1608/1610 29004KT 1500 BR HZ NSC

4,000개 이상의 공항 관측 자료 및 예보 (METAR 및 TAF 보고).

지도상에서 검색 가능한 기상관측소가 노란 점과 빨간 점으로 표시되어 있습니다.

기상관측소 명을 보려면 표시 위로 마우스를 이동하세요.

날씨 관측과 예보를 보려면 클릭하세요.

지도 변경 : 확대하려면 엑스 표시가 있는 녹색 버튼, 축소하려면 빼기 표시가 있는 녹색 버튼, 다음 페이지의 지도를 보려면 녹색 화살표를 클릭하세요.


METAR-TAF: